sensor_id;sensor_type;location;lat;lon;timestamp;P1;durP1;ratioP1;P2;durP2;ratioP2
22829;SDS011;11581;51.250;6.778;2023-01-19T00:00:47;7.32;;;4.53;;
22829;SDS011;11581;51.250;6.778;2023-01-19T00:03:14;6.30;;;4.32;;
22829;SDS011;11581;51.250;6.778;2023-01-19T00:05:42;9.77;;;5.10;;
22829;SDS011;11581;51.250;6.778;2023-01-19T00:08:09;7.45;;;4.82;;
22829;SDS011;11581;51.250;6.778;2023-01-19T00:10:43;8.27;;;4.82;;
22829;SDS011;11581;51.250;6.778;2023-01-19T00:13:10;7.10;;;4.93;;
22829;SDS011;11581;51.250;6.778;2023-01-19T00:15:39;6.75;;;4.85;;
22829;SDS011;11581;51.250;6.778;2023-01-19T00:18:06;7.90;;;4.28;;
22829;SDS011;11581;51.250;6.778;2023-01-19T00:20:32;7.95;;;4.40;;
22829;SDS011;11581;51.250;6.778;2023-01-19T00:23:00;7.70;;;4.65;;
22829;SDS011;11581;51.250;6.778;2023-01-19T00:25:27;8.63;;;4.75;;
22829;SDS011;11581;51.250;6.778;2023-01-19T00:27:54;9.57;;;5.10;;
22829;SDS011;11581;51.250;6.778;2023-01-19T00:30:20;7.97;;;4.55;;
22829;SDS011;11581;51.250;6.778;2023-01-19T00:32:48;8.23;;;4.25;;
22829;SDS011;11581;51.250;6.778;2023-01-19T00:35:15;8.00;;;4.90;;
22829;SDS011;11581;51.250;6.778;2023-01-19T00:37:42;6.68;;;4.68;;
22829;SDS011;11581;51.250;6.778;2023-01-19T00:40:10;6.97;;;4.82;;
22829;SDS011;11581;51.250;6.778;2023-01-19T00:42:37;6.82;;;4.53;;
22829;SDS011;11581;51.250;6.778;2023-01-19T00:45:09;8.27;;;4.85;;
22829;SDS011;11581;51.250;6.778;2023-01-19T00:47:37;7.15;;;4.93;;
22829;SDS011;11581;51.250;6.778;2023-01-19T00:50:06;6.60;;;4.65;;
22829;SDS011;11581;51.250;6.778;2023-01-19T00:52:36;7.43;;;4.85;;
22829;SDS011;11581;51.250;6.778;2023-01-19T00:55:03;7.93;;;4.85;;
22829;SDS011;11581;51.250;6.778;2023-01-19T00:57:30;12.98;;;4.68;;
22829;SDS011;11581;51.250;6.778;2023-01-19T00:59:56;8.50;;;4.55;;
22829;SDS011;11581;51.250;6.778;2023-01-19T01:02:23;7.57;;;4.55;;
22829;SDS011;11581;51.250;6.778;2023-01-19T01:04:49;8.30;;;4.82;;
22829;SDS011;11581;51.250;6.778;2023-01-19T01:07:20;11.70;;;4.47;;
22829;SDS011;11581;51.250;6.778;2023-01-19T01:09:47;7.18;;;4.70;;
22829;SDS011;11581;51.250;6.778;2023-01-19T01:12:14;6.72;;;4.38;;
22829;SDS011;11581;51.250;6.778;2023-01-19T01:14:40;8.65;;;4.60;;
22829;SDS011;11581;51.250;6.778;2023-01-19T01:17:07;7.22;;;4.47;;
22829;SDS011;11581;51.250;6.778;2023-01-19T01:19:38;7.18;;;4.18;;
22829;SDS011;11581;51.250;6.778;2023-01-19T01:22:05;8.52;;;5.13;;
22829;SDS011;11581;51.250;6.778;2023-01-19T01:24:33;9.40;;;4.93;;
22829;SDS011;11581;51.250;6.778;2023-01-19T01:27:00;6.80;;;4.50;;
22829;SDS011;11581;51.250;6.778;2023-01-19T01:29:27;7.38;;;5.03;;
22829;SDS011;11581;51.250;6.778;2023-01-19T01:31:53;6.90;;;4.82;;
22829;SDS011;11581;51.250;6.778;2023-01-19T01:34:20;8.05;;;5.05;;
22829;SDS011;11581;51.250;6.778;2023-01-19T01:36:46;9.15;;;4.95;;
22829;SDS011;11581;51.250;6.778;2023-01-19T01:39:13;9.75;;;5.20;;
22829;SDS011;11581;51.250;6.778;2023-01-19T01:41:41;9.68;;;4.95;;
22829;SDS011;11581;51.250;6.778;2023-01-19T01:47:15;7.57;;;4.32;;
22829;SDS011;11581;51.250;6.778;2023-01-19T01:49:47;9.63;;;4.90;;
22829;SDS011;11581;51.250;6.778;2023-01-19T01:52:16;7.57;;;5.32;;
22829;SDS011;11581;51.250;6.778;2023-01-19T01:54:44;6.93;;;4.80;;
22829;SDS011;11581;51.250;6.778;2023-01-19T01:57:12;6.30;;;4.68;;
22829;SDS011;11581;51.250;6.778;2023-01-19T01:59:40;7.30;;;4.70;;
22829;SDS011;11581;51.250;6.778;2023-01-19T02:02:10;8.27;;;5.03;;
22829;SDS011;11581;51.250;6.778;2023-01-19T02:04:59;9.90;;;4.82;;
22829;SDS011;11581;51.250;6.778;2023-01-19T02:07:30;7.95;;;4.82;;
22829;SDS011;11581;51.250;6.778;2023-01-19T02:10:21;10.05;;;4.53;;
22829;SDS011;11581;51.250;6.778;2023-01-19T02:15:42;6.72;;;4.47;;
22829;SDS011;11581;51.250;6.778;2023-01-19T02:18:09;7.75;;;4.80;;
22829;SDS011;11581;51.250;6.778;2023-01-19T02:20:36;7.63;;;5.00;;
22829;SDS011;11581;51.250;6.778;2023-01-19T02:23:09;10.63;;;4.60;;
22829;SDS011;11581;51.250;6.778;2023-01-19T02:25:43;6.82;;;4.43;;
22829;SDS011;11581;51.250;6.778;2023-01-19T02:28:12;7.30;;;5.07;;
22829;SDS011;11581;51.250;6.778;2023-01-19T02:30:39;7.03;;;4.38;;
22829;SDS011;11581;51.250;6.778;2023-01-19T02:33:06;7.97;;;4.95;;
22829;SDS011;11581;51.250;6.778;2023-01-19T02:35:33;6.35;;;4.70;;
22829;SDS011;11581;51.250;6.778;2023-01-19T02:38:02;11.68;;;5.18;;
22829;SDS011;11581;51.250;6.778;2023-01-19T02:40:29;9.15;;;4.65;;
22829;SDS011;11581;51.250;6.778;2023-01-19T02:42:58;8.90;;;5.03;;
22829;SDS011;11581;51.250;6.778;2023-01-19T02:45:25;8.27;;;4.90;;
22829;SDS011;11581;51.250;6.778;2023-01-19T02:47:52;9.45;;;4.65;;
22829;SDS011;11581;51.250;6.778;2023-01-19T02:55:59;8.85;;;4.25;;
22829;SDS011;11581;51.250;6.778;2023-01-19T02:58:35;10.40;;;4.45;;
22829;SDS011;11581;51.250;6.778;2023-01-19T03:01:11;6.60;;;4.40;;
22829;SDS011;11581;51.250;6.778;2023-01-19T03:03:49;7.97;;;5.13;;
22829;SDS011;11581;51.250;6.778;2023-01-19T03:06:24;5.97;;;4.00;;
22829;SDS011;11581;51.250;6.778;2023-01-19T03:08:59;7.80;;;4.28;;
22829;SDS011;11581;51.250;6.778;2023-01-19T03:11:31;8.95;;;4.75;;
22829;SDS011;11581;51.250;6.778;2023-01-19T03:14:06;7.03;;;4.15;;
22829;SDS011;11581;51.250;6.778;2023-01-19T03:16:38;5.60;;;4.38;;
22829;SDS011;11581;51.250;6.778;2023-01-19T03:19:08;8.65;;;4.20;;
22829;SDS011;11581;51.250;6.778;2023-01-19T03:21:40;5.90;;;3.88;;
22829;SDS011;11581;51.250;6.778;2023-01-19T03:24:12;10.18;;;4.65;;
22829;SDS011;11581;51.250;6.778;2023-01-19T03:26:41;6.03;;;4.18;;
22829;SDS011;11581;51.250;6.778;2023-01-19T03:29:12;5.75;;;4.03;;
22829;SDS011;11581;51.250;6.778;2023-01-19T03:31:41;7.03;;;4.38;;
22829;SDS011;11581;51.250;6.778;2023-01-19T03:34:11;6.68;;;4.07;;
22829;SDS011;11581;51.250;6.778;2023-01-19T03:36:41;6.85;;;4.10;;
22829;SDS011;11581;51.250;6.778;2023-01-19T03:39:09;6.72;;;3.97;;
22829;SDS011;11581;51.250;6.778;2023-01-19T03:41:39;8.50;;;4.03;;
22829;SDS011;11581;51.250;6.778;2023-01-19T03:44:08;7.22;;;4.32;;
22829;SDS011;11581;51.250;6.778;2023-01-19T03:46:38;8.07;;;4.47;;
22829;SDS011;11581;51.250;6.778;2023-01-19T03:49:05;7.82;;;4.50;;
22829;SDS011;11581;51.250;6.778;2023-01-19T03:51:34;8.70;;;4.90;;
22829;SDS011;11581;51.250;6.778;2023-01-19T03:54:01;8.55;;;4.85;;
22829;SDS011;11581;51.250;6.778;2023-01-19T03:56:28;8.65;;;4.78;;
22829;SDS011;11581;51.250;6.778;2023-01-19T03:58:55;10.18;;;4.93;;
22829;SDS011;11581;51.250;6.778;2023-01-19T04:01:21;8.27;;;5.75;;
22829;SDS011;11581;51.250;6.778;2023-01-19T04:03:50;11.00;;;6.18;;
22829;SDS011;11581;51.250;6.778;2023-01-19T04:06:18;9.38;;;5.90;;
22829;SDS011;11581;51.250;6.778;2023-01-19T04:08:46;8.82;;;5.68;;
22829;SDS011;11581;51.250;6.778;2023-01-19T04:11:13;7.85;;;5.20;;
22829;SDS011;11581;51.250;6.778;2023-01-19T04:13:40;9.07;;;5.55;;
22829;SDS011;11581;51.250;6.778;2023-01-19T04:16:08;9.13;;;5.38;;
22829;SDS011;11581;51.250;6.778;2023-01-19T04:18:36;7.72;;;5.28;;
22829;SDS011;11581;51.250;6.778;2023-01-19T04:21:05;11.32;;;6.18;;
22829;SDS011;11581;51.250;6.778;2023-01-19T04:23:33;9.70;;;5.47;;
22829;SDS011;11581;51.250;6.778;2023-01-19T04:26:00;9.63;;;5.63;;
22829;SDS011;11581;51.250;6.778;2023-01-19T04:28:29;15.73;;;7.25;;
22829;SDS011;11581;51.250;6.778;2023-01-19T04:30:56;8.77;;;5.95;;
22829;SDS011;11581;51.250;6.778;2023-01-19T04:33:23;9.57;;;6.03;;
22829;SDS011;11581;51.250;6.778;2023-01-19T04:35:50;12.95;;;6.88;;
22829;SDS011;11581;51.250;6.778;2023-01-19T04:38:18;13.55;;;7.38;;
22829;SDS011;11581;51.250;6.778;2023-01-19T04:40:45;10.43;;;6.25;;
22829;SDS011;11581;51.250;6.778;2023-01-19T04:43:13;9.27;;;6.28;;
22829;SDS011;11581;51.250;6.778;2023-01-19T04:45:39;10.27;;;6.68;;
22829;SDS011;11581;51.250;6.778;2023-01-19T04:48:08;11.38;;;6.78;;
22829;SDS011;11581;51.250;6.778;2023-01-19T04:50:35;16.05;;;7.57;;
22829;SDS011;11581;51.250;6.778;2023-01-19T04:53:02;10.18;;;6.50;;
22829;SDS011;11581;51.250;6.778;2023-01-19T04:55:30;11.18;;;6.95;;
22829;SDS011;11581;51.250;6.778;2023-01-19T04:57:57;9.95;;;6.45;;
22829;SDS011;11581;51.250;6.778;2023-01-19T05:00:23;12.02;;;7.53;;
22829;SDS011;11581;51.250;6.778;2023-01-19T05:02:52;13.43;;;7.90;;
22829;SDS011;11581;51.250;6.778;2023-01-19T05:05:18;11.38;;;7.47;;
22829;SDS011;11581;51.250;6.778;2023-01-19T05:07:45;11.82;;;7.35;;
22829;SDS011;11581;51.250;6.778;2023-01-19T05:10:11;11.27;;;6.85;;
22829;SDS011;11581;51.250;6.778;2023-01-19T05:12:40;13.07;;;7.72;;
22829;SDS011;11581;51.250;6.778;2023-01-19T05:15:07;14.43;;;7.43;;
22829;SDS011;11581;51.250;6.778;2023-01-19T05:17:35;12.77;;;6.63;;
22829;SDS011;11581;51.250;6.778;2023-01-19T05:20:02;10.45;;;6.18;;
22829;SDS011;11581;51.250;6.778;2023-01-19T05:22:30;11.25;;;6.72;;
22829;SDS011;11581;51.250;6.778;2023-01-19T05:24:56;9.35;;;6.60;;
22829;SDS011;11581;51.250;6.778;2023-01-19T05:27:23;12.43;;;6.43;;
22829;SDS011;11581;51.250;6.778;2023-01-19T05:29:51;9.90;;;7.00;;
22829;SDS011;11581;51.250;6.778;2023-01-19T05:32:18;9.65;;;6.05;;
22829;SDS011;11581;51.250;6.778;2023-01-19T05:34:44;12.63;;;7.03;;
22829;SDS011;11581;51.250;6.778;2023-01-19T05:37:11;11.38;;;6.78;;
22829;SDS011;11581;51.250;6.778;2023-01-19T05:39:38;13.95;;;6.93;;
22829;SDS011;11581;51.250;6.778;2023-01-19T05:42:04;9.93;;;6.85;;
22829;SDS011;11581;51.250;6.778;2023-01-19T05:44:31;11.02;;;6.30;;
22829;SDS011;11581;51.250;6.778;2023-01-19T05:46:59;11.27;;;7.65;;
22829;SDS011;11581;51.250;6.778;2023-01-19T05:49:26;12.20;;;6.20;;
22829;SDS011;11581;51.250;6.778;2023-01-19T05:51:52;9.15;;;6.45;;
22829;SDS011;11581;51.250;6.778;2023-01-19T05:54:19;10.35;;;6.95;;
22829;SDS011;11581;51.250;6.778;2023-01-19T05:56:45;8.93;;;6.28;;
22829;SDS011;11581;51.250;6.778;2023-01-19T05:59:12;9.75;;;6.40;;
22829;SDS011;11581;51.250;6.778;2023-01-19T06:01:39;8.32;;;6.07;;
22829;SDS011;11581;51.250;6.778;2023-01-19T06:04:07;8.60;;;5.78;;
22829;SDS011;11581;51.250;6.778;2023-01-19T06:06:33;8.05;;;6.10;;
22829;SDS011;11581;51.250;6.778;2023-01-19T06:09:00;7.85;;;5.78;;
22829;SDS011;11581;51.250;6.778;2023-01-19T06:11:27;9.55;;;6.40;;
22829;SDS011;11581;51.250;6.778;2023-01-19T06:13:53;10.95;;;5.38;;
22829;SDS011;11581;51.250;6.778;2023-01-19T06:16:20;14.90;;;5.32;;
22829;SDS011;11581;51.250;6.778;2023-01-19T06:18:46;7.93;;;5.50;;
22829;SDS011;11581;51.250;6.778;2023-01-19T06:21:14;7.75;;;5.28;;
22829;SDS011;11581;51.250;6.778;2023-01-19T06:23:41;8.00;;;5.63;;
22829;SDS011;11581;51.250;6.778;2023-01-19T06:26:07;7.90;;;4.85;;
22829;SDS011;11581;51.250;6.778;2023-01-19T06:28:34;7.78;;;5.25;;
22829;SDS011;11581;51.250;6.778;2023-01-19T06:31:01;6.80;;;4.72;;
22829;SDS011;11581;51.250;6.778;2023-01-19T06:33:27;5.95;;;4.15;;
22829;SDS011;11581;51.250;6.778;2023-01-19T06:35:54;6.85;;;4.75;;
22829;SDS011;11581;51.250;6.778;2023-01-19T06:38:22;6.18;;;4.50;;
22829;SDS011;11581;51.250;6.778;2023-01-19T06:40:52;6.72;;;4.60;;
22829;SDS011;11581;51.250;6.778;2023-01-19T06:43:23;5.37;;;3.23;;
22829;SDS011;11581;51.250;6.778;2023-01-19T06:45:50;7.80;;;4.30;;
22829;SDS011;11581;51.250;6.778;2023-01-19T06:48:17;6.78;;;3.63;;
22829;SDS011;11581;51.250;6.778;2023-01-19T06:50:44;6.07;;;3.83;;
22829;SDS011;11581;51.250;6.778;2023-01-19T06:53:11;4.95;;;3.60;;
22829;SDS011;11581;51.250;6.778;2023-01-19T06:55:39;4.55;;;3.33;;
22829;SDS011;11581;51.250;6.778;2023-01-19T06:58:06;6.00;;;3.92;;
22829;SDS011;11581;51.250;6.778;2023-01-19T07:00:33;5.93;;;4.10;;
22829;SDS011;11581;51.250;6.778;2023-01-19T07:03:00;6.38;;;3.95;;
22829;SDS011;11581;51.250;6.778;2023-01-19T07:05:27;7.72;;;5.18;;
22829;SDS011;11581;51.250;6.778;2023-01-19T07:07:53;8.20;;;5.22;;
22829;SDS011;11581;51.250;6.778;2023-01-19T07:10:21;7.50;;;4.78;;
22829;SDS011;11581;51.250;6.778;2023-01-19T07:12:51;7.10;;;4.78;;
22829;SDS011;11581;51.250;6.778;2023-01-19T07:15:18;8.52;;;5.10;;
22829;SDS011;11581;51.250;6.778;2023-01-19T07:17:46;8.15;;;5.03;;
22829;SDS011;11581;51.250;6.778;2023-01-19T07:20:13;7.65;;;5.80;;
22829;SDS011;11581;51.250;6.778;2023-01-19T07:22:41;7.93;;;5.18;;
22829;SDS011;11581;51.250;6.778;2023-01-19T07:25:09;8.38;;;5.82;;
22829;SDS011;11581;51.250;6.778;2023-01-19T07:27:36;8.68;;;5.40;;
22829;SDS011;11581;51.250;6.778;2023-01-19T07:30:06;9.18;;;5.97;;
22829;SDS011;11581;51.250;6.778;2023-01-19T07:32:34;8.98;;;5.85;;
22829;SDS011;11581;51.250;6.778;2023-01-19T07:35:01;10.43;;;6.57;;
22829;SDS011;11581;51.250;6.778;2023-01-19T07:37:27;11.88;;;6.85;;
22829;SDS011;11581;51.250;6.778;2023-01-19T07:39:54;8.85;;;6.32;;
22829;SDS011;11581;51.250;6.778;2023-01-19T07:42:20;10.00;;;6.15;;
22829;SDS011;11581;51.250;6.778;2023-01-19T07:44:47;8.48;;;6.43;;
22829;SDS011;11581;51.250;6.778;2023-01-19T07:47:15;10.43;;;6.53;;
22829;SDS011;11581;51.250;6.778;2023-01-19T07:49:42;8.98;;;6.53;;
22829;SDS011;11581;51.250;6.778;2023-01-19T07:52:08;10.05;;;6.68;;
22829;SDS011;11581;51.250;6.778;2023-01-19T07:54:36;10.27;;;7.03;;
22829;SDS011;11581;51.250;6.778;2023-01-19T07:57:03;8.98;;;6.85;;
22829;SDS011;11581;51.250;6.778;2023-01-19T07:59:30;10.20;;;6.65;;
22829;SDS011;11581;51.250;6.778;2023-01-19T08:01:56;12.20;;;7.25;;
22829;SDS011;11581;51.250;6.778;2023-01-19T08:04:25;9.85;;;6.60;;
22829;SDS011;11581;51.250;6.778;2023-01-19T08:06:52;9.23;;;6.65;;
22829;SDS011;11581;51.250;6.778;2023-01-19T08:09:20;11.13;;;6.43;;
22829;SDS011;11581;51.250;6.778;2023-01-19T08:11:48;10.68;;;6.63;;
22829;SDS011;11581;51.250;6.778;2023-01-19T08:14:14;11.75;;;7.40;;
22829;SDS011;11581;51.250;6.778;2023-01-19T08:16:41;10.32;;;6.38;;
22829;SDS011;11581;51.250;6.778;2023-01-19T08:19:07;8.93;;;5.82;;
22829;SDS011;11581;51.250;6.778;2023-01-19T08:21:35;8.32;;;6.05;;
22829;SDS011;11581;51.250;6.778;2023-01-19T08:24:03;10.88;;;6.18;;
22829;SDS011;11581;51.250;6.778;2023-01-19T08:26:30;8.05;;;5.65;;
22829;SDS011;11581;51.250;6.778;2023-01-19T08:28:59;8.93;;;6.68;;
22829;SDS011;11581;51.250;6.778;2023-01-19T08:31:27;10.40;;;6.30;;
22829;SDS011;11581;51.250;6.778;2023-01-19T08:33:54;8.68;;;6.15;;
22829;SDS011;11581;51.250;6.778;2023-01-19T08:36:20;9.48;;;6.50;;
22829;SDS011;11581;51.250;6.778;2023-01-19T08:38:50;9.93;;;6.55;;
22829;SDS011;11581;51.250;6.778;2023-01-19T08:41:17;10.55;;;6.65;;
22829;SDS011;11581;51.250;6.778;2023-01-19T08:43:44;9.57;;;6.63;;
22829;SDS011;11581;51.250;6.778;2023-01-19T08:46:11;11.52;;;7.35;;
22829;SDS011;11581;51.250;6.778;2023-01-19T08:48:41;12.15;;;7.50;;
22829;SDS011;11581;51.250;6.778;2023-01-19T08:51:09;8.73;;;6.63;;
22829;SDS011;11581;51.250;6.778;2023-01-19T08:53:36;11.07;;;7.70;;
22829;SDS011;11581;51.250;6.778;2023-01-19T08:56:04;12.30;;;7.30;;
22829;SDS011;11581;51.250;6.778;2023-01-19T08:58:36;17.27;;;7.25;;
22829;SDS011;11581;51.250;6.778;2023-01-19T09:01:03;11.18;;;7.32;;
22829;SDS011;11581;51.250;6.778;2023-01-19T09:03:30;10.30;;;7.13;;
22829;SDS011;11581;51.250;6.778;2023-01-19T09:05:56;13.20;;;8.05;;
22829;SDS011;11581;51.250;6.778;2023-01-19T09:08:23;11.70;;;8.13;;
22829;SDS011;11581;51.250;6.778;2023-01-19T09:10:50;12.00;;;7.63;;
22829;SDS011;11581;51.250;6.778;2023-01-19T09:13:18;10.98;;;8.02;;
22829;SDS011;11581;51.250;6.778;2023-01-19T09:15:45;11.45;;;8.27;;
22829;SDS011;11581;51.250;6.778;2023-01-19T09:18:13;11.85;;;7.88;;
22829;SDS011;11581;51.250;6.778;2023-01-19T09:20:42;12.18;;;8.15;;
22829;SDS011;11581;51.250;6.778;2023-01-19T09:23:10;13.63;;;8.93;;
22829;SDS011;11581;51.250;6.778;2023-01-19T09:25:38;15.35;;;8.50;;
22829;SDS011;11581;51.250;6.778;2023-01-19T09:28:05;15.43;;;9.00;;
22829;SDS011;11581;51.250;6.778;2023-01-19T09:30:35;12.77;;;8.43;;
22829;SDS011;11581;51.250;6.778;2023-01-19T09:33:03;13.60;;;8.80;;
22829;SDS011;11581;51.250;6.778;2023-01-19T09:35:31;15.00;;;9.32;;
22829;SDS011;11581;51.250;6.778;2023-01-19T09:37:58;15.80;;;9.52;;
22829;SDS011;11581;51.250;6.778;2023-01-19T09:40:25;14.32;;;9.25;;
22829;SDS011;11581;51.250;6.778;2023-01-19T09:42:54;15.30;;;9.63;;
22829;SDS011;11581;51.250;6.778;2023-01-19T09:45:26;16.13;;;10.20;;
22829;SDS011;11581;51.250;6.778;2023-01-19T09:48:00;14.68;;;9.75;;
22829;SDS011;11581;51.250;6.778;2023-01-19T09:50:30;19.65;;;9.98;;
22829;SDS011;11581;51.250;6.778;2023-01-19T09:53:02;13.48;;;10.00;;
22829;SDS011;11581;51.250;6.778;2023-01-19T09:55:38;15.27;;;10.23;;
22829;SDS011;11581;51.250;6.778;2023-01-19T09:58:08;18.33;;;10.00;;
22829;SDS011;11581;51.250;6.778;2023-01-19T10:00:37;14.27;;;9.65;;
22829;SDS011;11581;51.250;6.778;2023-01-19T10:03:08;19.42;;;10.43;;
22829;SDS011;11581;51.250;6.778;2023-01-19T10:05:41;18.75;;;10.75;;
22829;SDS011;11581;51.250;6.778;2023-01-19T10:08:16;15.57;;;10.32;;
22829;SDS011;11581;51.250;6.778;2023-01-19T10:10:50;16.17;;;10.45;;
22829;SDS011;11581;51.250;6.778;2023-01-19T10:13:24;23.27;;;11.05;;
22829;SDS011;11581;51.250;6.778;2023-01-19T10:16:00;20.33;;;11.55;;
22829;SDS011;11581;51.250;6.778;2023-01-19T10:18:38;16.80;;;10.80;;
22829;SDS011;11581;51.250;6.778;2023-01-19T10:21:13;17.15;;;10.80;;
22829;SDS011;11581;51.250;6.778;2023-01-19T10:23:43;17.80;;;11.27;;
22829;SDS011;11581;51.250;6.778;2023-01-19T10:26:14;17.92;;;11.65;;
22829;SDS011;11581;51.250;6.778;2023-01-19T10:28:42;17.80;;;12.10;;
22829;SDS011;11581;51.250;6.778;2023-01-19T10:31:12;17.80;;;11.23;;
22829;SDS011;11581;51.250;6.778;2023-01-19T10:33:40;19.05;;;11.15;;
22829;SDS011;11581;51.250;6.778;2023-01-19T10:36:14;20.30;;;12.25;;
22829;SDS011;11581;51.250;6.778;2023-01-19T10:38:43;19.58;;;11.10;;
22829;SDS011;11581;51.250;6.778;2023-01-19T10:41:12;19.80;;;11.18;;
22829;SDS011;11581;51.250;6.778;2023-01-19T10:43:43;21.25;;;10.93;;
22829;SDS011;11581;51.250;6.778;2023-01-19T10:49:04;18.30;;;11.15;;
22829;SDS011;11581;51.250;6.778;2023-01-19T10:51:31;28.48;;;11.20;;
22829;SDS011;11581;51.250;6.778;2023-01-19T10:53:59;19.50;;;11.90;;
22829;SDS011;11581;51.250;6.778;2023-01-19T10:56:28;21.33;;;10.90;;
22829;SDS011;11581;51.250;6.778;2023-01-19T10:58:59;21.00;;;11.77;;
22829;SDS011;11581;51.250;6.778;2023-01-19T11:01:27;18.77;;;10.95;;
22829;SDS011;11581;51.250;6.778;2023-01-19T11:03:55;21.92;;;12.27;;
22829;SDS011;11581;51.250;6.778;2023-01-19T11:06:31;19.95;;;10.60;;
22829;SDS011;11581;51.250;6.778;2023-01-19T11:09:09;22.20;;;11.20;;
22829;SDS011;11581;51.250;6.778;2023-01-19T11:11:41;19.42;;;10.20;;
22829;SDS011;11581;51.250;6.778;2023-01-19T11:14:09;19.80;;;11.05;;
22829;SDS011;11581;51.250;6.778;2023-01-19T11:16:38;23.55;;;11.25;;
22829;SDS011;11581;51.250;6.778;2023-01-19T11:19:05;23.15;;;11.50;;
22829;SDS011;11581;51.250;6.778;2023-01-19T11:21:43;17.80;;;11.00;;
22829;SDS011;11581;51.250;6.778;2023-01-19T11:24:10;19.50;;;11.40;;
22829;SDS011;11581;51.250;6.778;2023-01-19T11:26:39;20.90;;;10.48;;
22829;SDS011;11581;51.250;6.778;2023-01-19T11:29:13;23.90;;;12.30;;
22829;SDS011;11581;51.250;6.778;2023-01-19T11:31:42;24.77;;;11.80;;
22829;SDS011;11581;51.250;6.778;2023-01-19T11:34:21;20.67;;;11.50;;
22829;SDS011;11581;51.250;6.778;2023-01-19T11:36:56;18.17;;;12.23;;
22829;SDS011;11581;51.250;6.778;2023-01-19T11:39:25;21.48;;;12.25;;
22829;SDS011;11581;51.250;6.778;2023-01-19T11:41:54;19.40;;;10.02;;
22829;SDS011;11581;51.250;6.778;2023-01-19T11:44:25;20.55;;;11.25;;
22829;SDS011;11581;51.250;6.778;2023-01-19T11:46:55;22.67;;;12.18;;
22829;SDS011;11581;51.250;6.778;2023-01-19T11:49:26;20.02;;;11.05;;
22829;SDS011;11581;51.250;6.778;2023-01-19T11:52:01;17.60;;;11.02;;
22829;SDS011;11581;51.250;6.778;2023-01-19T11:54:31;18.52;;;11.15;;
22829;SDS011;11581;51.250;6.778;2023-01-19T11:57:05;19.90;;;11.32;;
22829;SDS011;11581;51.250;6.778;2023-01-19T11:59:37;22.60;;;11.05;;
22829;SDS011;11581;51.250;6.778;2023-01-19T12:02:09;19.90;;;11.77;;
22829;SDS011;11581;51.250;6.778;2023-01-19T12:04:45;15.00;;;10.40;;
22829;SDS011;11581;51.250;6.778;2023-01-19T12:07:16;17.45;;;10.25;;
22829;SDS011;11581;51.250;6.778;2023-01-19T12:09:49;17.95;;;9.70;;
22829;SDS011;11581;51.250;6.778;2023-01-19T12:12:23;17.92;;;10.02;;
22829;SDS011;11581;51.250;6.778;2023-01-19T12:14:55;23.58;;;10.48;;
22829;SDS011;11581;51.250;6.778;2023-01-19T12:17:26;17.27;;;9.52;;
22829;SDS011;11581;51.250;6.778;2023-01-19T12:19:58;18.92;;;10.75;;
22829;SDS011;11581;51.250;6.778;2023-01-19T12:22:30;19.20;;;10.38;;
22829;SDS011;11581;51.250;6.778;2023-01-19T12:25:10;18.00;;;10.20;;
22829;SDS011;11581;51.250;6.778;2023-01-19T12:27:41;20.00;;;9.93;;
22829;SDS011;11581;51.250;6.778;2023-01-19T12:30:13;18.77;;;10.95;;
22829;SDS011;11581;51.250;6.778;2023-01-19T12:32:43;15.00;;;9.70;;
22829;SDS011;11581;51.250;6.778;2023-01-19T12:41:15;17.80;;;9.48;;
22829;SDS011;11581;51.250;6.778;2023-01-19T12:43:47;18.00;;;10.00;;
22829;SDS011;11581;51.250;6.778;2023-01-19T12:46:35;15.80;;;8.77;;
22829;SDS011;11581;51.250;6.778;2023-01-19T12:49:03;15.30;;;9.15;;
22829;SDS011;11581;51.250;6.778;2023-01-19T12:51:31;14.90;;;9.02;;
22829;SDS011;11581;51.250;6.778;2023-01-19T12:53:59;17.60;;;9.30;;
22829;SDS011;11581;51.250;6.778;2023-01-19T12:56:30;15.93;;;8.57;;
22829;SDS011;11581;51.250;6.778;2023-01-19T12:58:59;13.32;;;8.80;;
22829;SDS011;11581;51.250;6.778;2023-01-19T13:01:26;13.50;;;8.75;;
22829;SDS011;11581;51.250;6.778;2023-01-19T13:03:57;20.33;;;9.80;;
22829;SDS011;11581;51.250;6.778;2023-01-19T13:09:31;16.95;;;9.70;;
22829;SDS011;11581;51.250;6.778;2023-01-19T13:14:46;15.20;;;8.90;;
22829;SDS011;11581;51.250;6.778;2023-01-19T13:17:22;14.82;;;8.95;;
22829;SDS011;11581;51.250;6.778;2023-01-19T13:19:57;18.90;;;9.35;;
22829;SDS011;11581;51.250;6.778;2023-01-19T13:25:45;11.38;;;6.80;;
22829;SDS011;11581;51.250;6.778;2023-01-19T13:28:15;19.15;;;9.13;;
22829;SDS011;11581;51.250;6.778;2023-01-19T13:30:53;15.45;;;9.77;;
22829;SDS011;11581;51.250;6.778;2023-01-19T13:33:23;17.63;;;9.70;;
22829;SDS011;11581;51.250;6.778;2023-01-19T13:35:53;14.93;;;9.13;;
22829;SDS011;11581;51.250;6.778;2023-01-19T13:38:22;17.33;;;10.13;;
22829;SDS011;11581;51.250;6.778;2023-01-19T13:40:52;18.88;;;9.93;;
22829;SDS011;11581;51.250;6.778;2023-01-19T13:43:20;18.00;;;10.73;;
22829;SDS011;11581;51.250;6.778;2023-01-19T13:45:53;22.27;;;10.90;;
22829;SDS011;11581;51.250;6.778;2023-01-19T13:48:21;19.15;;;10.80;;
22829;SDS011;11581;51.250;6.778;2023-01-19T13:50:56;18.83;;;11.35;;
22829;SDS011;11581;51.250;6.778;2023-01-19T13:53:25;16.70;;;9.85;;
22829;SDS011;11581;51.250;6.778;2023-01-19T13:58:59;17.23;;;9.50;;
22829;SDS011;11581;51.250;6.778;2023-01-19T14:01:34;18.10;;;10.05;;
22829;SDS011;11581;51.250;6.778;2023-01-19T14:04:02;18.23;;;9.48;;
22829;SDS011;11581;51.250;6.778;2023-01-19T14:06:39;15.85;;;10.05;;
22829;SDS011;11581;51.250;6.778;2023-01-19T14:09:13;20.80;;;10.25;;
22829;SDS011;11581;51.250;6.778;2023-01-19T14:11:43;15.15;;;9.70;;
22829;SDS011;11581;51.250;6.778;2023-01-19T14:14:21;21.92;;;10.38;;
22829;SDS011;11581;51.250;6.778;2023-01-19T14:16:48;19.42;;;9.60;;
22829;SDS011;11581;51.250;6.778;2023-01-19T14:19:15;14.73;;;9.52;;
22829;SDS011;11581;51.250;6.778;2023-01-19T14:21:42;20.95;;;11.40;;
22829;SDS011;11581;51.250;6.778;2023-01-19T14:24:14;18.67;;;9.45;;
22829;SDS011;11581;51.250;6.778;2023-01-19T14:26:44;18.55;;;10.48;;
22829;SDS011;11581;51.250;6.778;2023-01-19T14:29:16;18.35;;;9.75;;
22829;SDS011;11581;51.250;6.778;2023-01-19T14:31:48;16.33;;;9.38;;
22829;SDS011;11581;51.250;6.778;2023-01-19T14:34:30;19.25;;;10.00;;
22829;SDS011;11581;51.250;6.778;2023-01-19T14:36:57;13.75;;;8.90;;
22829;SDS011;11581;51.250;6.778;2023-01-19T14:39:25;15.60;;;8.57;;
22829;SDS011;11581;51.250;6.778;2023-01-19T14:41:56;14.82;;;8.93;;
22829;SDS011;11581;51.250;6.778;2023-01-19T14:44:25;14.48;;;7.95;;
22829;SDS011;11581;51.250;6.778;2023-01-19T14:46:56;14.02;;;8.85;;
22829;SDS011;11581;51.250;6.778;2023-01-19T14:49:26;14.55;;;8.73;;
22829;SDS011;11581;51.250;6.778;2023-01-19T14:51:56;15.15;;;8.65;;
22829;SDS011;11581;51.250;6.778;2023-01-19T14:54:26;17.50;;;9.10;;
22829;SDS011;11581;51.250;6.778;2023-01-19T14:56:58;15.25;;;9.23;;
22829;SDS011;11581;51.250;6.778;2023-01-19T14:59:24;18.20;;;9.93;;
22829;SDS011;11581;51.250;6.778;2023-01-19T15:01:51;18.95;;;10.30;;
22829;SDS011;11581;51.250;6.778;2023-01-19T15:04:18;17.83;;;9.60;;
22829;SDS011;11581;51.250;6.778;2023-01-19T15:06:44;16.80;;;9.27;;
22829;SDS011;11581;51.250;6.778;2023-01-19T15:09:12;14.10;;;9.13;;
22829;SDS011;11581;51.250;6.778;2023-01-19T15:11:39;13.52;;;9.05;;
22829;SDS011;11581;51.250;6.778;2023-01-19T15:14:08;13.93;;;9.25;;
22829;SDS011;11581;51.250;6.778;2023-01-19T15:16:38;12.93;;;8.32;;
22829;SDS011;11581;51.250;6.778;2023-01-19T15:19:07;12.52;;;8.38;;
22829;SDS011;11581;51.250;6.778;2023-01-19T15:21:36;14.63;;;9.35;;